Time;durP1;ratioP1;P1;durP2;ratioP2;P2;SDS_P1;SDS_P2;PMS_P1;PMS_P2;Temp;Humidity;BMP_temperature;BMP_pressure;BME280_temperature;BME280_humidity;BME280_pressure;Samples;Min_cycle;Max_cycle;Signal;HPM_P1;HPM_P2
2022/12/17 13:08:06;;;;;;;;;;;-3.70;99.90;;;-5.05;100.00;98080.00;5029637;28;19925;-49
2022/12/17 13:10:33;;;;;;;;;;;-3.80;99.90;;;-5.04;100.00;98076.63;5040046;28;20425;-48
2022/12/17 13:13:16;;;;;;;;;;;-3.80;99.90;;;-5.00;100.00;98074.19;5047721;28;19951;-49
2022/12/17 13:15:58;;;;;;;;;;;-3.80;99.90;;;-5.05;100.00;98080.00;5042870;28;19932;-50
2022/12/17 13:18:40;;;;;;;;;;;-3.80;99.90;;;-5.03;100.00;98068.06;5023948;28;19924;-48
2022/12/17 13:21:24;;;;;;;;;;;-3.80;99.90;;;-5.04;100.00;98066.34;5045773;28;20382;-48
2022/12/17 13:23:50;;;;;;;;;;;-3.80;99.90;;;-5.02;100.00;98064.69;5049446;28;19944;-49
2022/12/17 13:26:23;;;;;;;;;;;-3.80;99.90;;;-5.02;100.00;98062.09;5053432;28;20020;-49
2022/12/17 13:28:54;;;;;;;;;;;-3.80;99.90;;;-5.01;100.00;98071.56;5046335;28;20004;-48
2022/12/17 13:32:02;;;;;;;;;;;-3.80;99.90;;;-4.99;100.00;98065.66;5046568;28;19927;-48
2022/12/17 13:34:59;;;;;;;;;;;-3.70;99.90;;;-4.96;100.00;98064.00;5046042;28;19917;-47
2022/12/17 13:37:45;;;;;;;;;;;-3.80;99.90;;;-5.22;100.00;98038.25;5040603;28;19922;-47
2022/12/17 13:40:20;;;;;;;;;;;-3.70;99.90;;;-5.07;100.00;98074.78;5022935;28;19979;-49
2022/12/17 13:42:46;;;;;;;;;;;-3.70;99.90;;;-5.20;100.00;98052.91;5038960;28;20368;-47
2022/12/17 13:45:16;;;;;;;;;;;-3.80;99.90;;;-5.11;100.00;98074.66;5043701;28;19927;-47
2022/12/17 13:47:52;;;;;;;;;;;-3.80;99.90;;;-5.08;100.00;98067.03;5064745;22;20204;-40
2022/12/17 13:50:28;;;;;;;;;;;-3.90;99.90;;;-5.18;100.00;98051.28;5052551;28;19916;-40
2022/12/17 13:52:54;;;;;;;;;;;-3.80;99.90;;;-5.15;100.00;98068.53;5048183;28;19925;-39
2022/12/17 13:55:24;;;;;;;;;;;-3.90;99.90;;;-5.19;100.00;98077.81;5051970;28;19932;-39
2022/12/17 13:57:51;;;;;;;;;;;-3.90;99.90;;;-5.18;100.00;98073.56;5040723;28;19916;-39
2022/12/17 14:00:19;;;;;;;;;;;-3.90;99.90;;;-5.21;100.00;98069.16;5036255;28;19921;-40
2022/12/17 14:02:44;;;;;;;;;;;-3.90;99.90;;;-5.32;100.00;98065.34;5029825;28;19932;-40
2022/12/17 14:05:23;;;;;;;;;;;-4.00;99.90;;;-5.34;100.00;98078.97;5036667;28;19916;-40
2022/12/17 14:07:50;;;;;;;;;;;-4.00;99.90;;;-5.38;100.00;98080.56;5035090;28;20367;-39
2022/12/17 14:10:17;;;;;;;;;;;-4.10;99.90;;;-5.45;100.00;98082.00;5025252;28;19931;-39
2022/12/17 14:12:42;;;;;;;;;;;-4.10;99.90;;;-5.44;100.00;98088.03;5030286;28;19936;-39
2022/12/17 14:15:25;;;;;;;;;;;-4.10;99.90;;;-5.46;100.00;98095.66;5024411;28;19932;-39
2022/12/17 14:17:52;;;;;;;;;;;-4.20;99.90;;;-5.48;100.00;98091.31;5029393;28;19925;-39
2022/12/17 14:20:21;;;;;;;;;;;-4.20;99.90;;;-5.50;100.00;98091.25;5020893;28;19932;-37
2022/12/17 14:22:49;;;;;;;;;;;-4.20;99.90;;;-5.53;100.00;98098.81;5038460;28;20541;-39
2022/12/17 14:25:28;;;;;;;;;;;-4.30;99.90;;;-5.53;100.00;98105.69;5012077;28;19924;-39
2022/12/17 14:27:55;;;;;;;;;;;-4.30;99.90;;;-5.58;100.00;98106.38;5021474;28;19924;-39
2022/12/17 14:30:41;;;;;;;;;;;-4.30;99.90;;;-5.64;100.00;98105.28;5027637;28;20079;-39
2022/12/17 14:33:27;;;;;;;;;;;-4.40;99.90;;;-5.66;100.00;98109.47;5025740;28;19920;-39
2022/12/17 14:35:56;;;;;;;;;;;-4.40;99.90;;;-5.70;100.00;98110.19;5025774;28;19924;-39
2022/12/17 14:38:22;;;;;;;;;;;-4.50;99.90;;;-5.79;100.00;98109.00;5034531;28;19921;-39
2022/12/17 14:40:48;;;;;;;;;;;-4.50;99.90;;;-5.86;100.00;98111.28;5031248;28;19972;-39
2022/12/17 14:43:14;;;;;;;;;;;-4.60;99.90;;;-5.92;100.00;98100.75;5021561;28;19924;-39
2022/12/17 14:49:19;;;;;;;;;;;-4.70;99.90;;;-6.03;100.00;98110.63;5024857;28;19947;-40
2022/12/17 14:51:35;;;;;;;;;;;-4.80;99.90;;;-6.14;100.00;98105.06;5025717;28;20101;-39
2022/12/17 14:54:12;;;;;;;;;;;-4.80;99.90;;;-6.17;100.00;98108.41;5031846;28;19917;-38
2022/12/17 14:56:39;;;;;;;;;;;-4.90;99.90;;;-6.18;100.00;98113.47;5017645;28;19920;-40
2022/12/17 14:59:20;;;;;;;;;;;-4.90;99.90;;;-6.21;100.00;98103.97;5026651;28;19928;-40
2022/12/17 15:01:46;;;;;;;;;;;-4.90;99.90;;;-6.23;100.00;98109.84;5031816;28;19928;-40
2022/12/17 15:04:12;;;;;;;;;;;-5.00;99.90;;;-6.30;100.00;98107.84;5032485;28;20435;-39
2022/12/17 15:06:38;;;;;;;;;;;-5.00;99.90;;;-6.36;100.00;98106.78;5030506;28;20351;-38
2022/12/17 15:09:03;;;;;;;;;;;-5.10;99.90;;;-6.41;100.00;98112.53;5028001;28;19920;-39
2022/12/17 15:11:29;;;;;;;;;;;-5.10;99.90;;;-6.44;100.00;98113.31;5015961;28;19947;-37
2022/12/17 15:13:55;;;;;;;;;;;-5.20;99.90;;;-6.52;100.00;98117.25;5020758;28;20411;-38
2022/12/17 15:16:20;;;;;;;;;;;-5.30;99.90;;;-6.60;100.00;98118.63;5028881;28;19931;-38
2022/12/17 15:18:46;;;;;;;;;;;-5.30;99.90;;;-6.67;100.00;98114.91;5018245;28;19931;-38
2022/12/17 15:21:12;;;;;;;;;;;-5.40;99.90;;;-6.69;100.00;98118.22;5033304;28;19967;-38
2022/12/17 15:23:40;;;;;;;;;;;-5.50;99.90;;;-6.75;100.00;98118.84;5027870;28;19924;-38
2022/12/17 15:26:05;;;;;;;;;;;-5.50;99.90;;;-6.82;100.00;98117.72;5029112;28;20296;-38
2022/12/17 15:28:31;;;;;;;;;;;-5.50;99.90;;;-6.95;100.00;98110.28;5029660;28;20194;-36
2022/12/17 15:30:56;;;;;;;;;;;-5.60;99.90;;;-6.95;100.00;98121.41;5011179;28;22492;-37
2022/12/17 15:33:22;;;;;;;;;;;-5.70;99.90;;;-6.98;100.00;98125.53;5016698;28;19923;-39
2022/12/17 15:35:48;;;;;;;;;;;-5.70;99.90;;;-7.05;100.00;98124.41;5027620;28;19932;-38
2022/12/17 15:38:13;;;;;;;;;;;-5.70;99.90;;;-7.20;100.00;98118.59;5039358;28;19986;-39
2022/12/17 15:40:39;;;;;;;;;;;-5.80;99.90;;;-7.19;100.00;98128.94;5029706;28;20466;-39
2022/12/17 15:43:10;;;;;;;;;;;-5.90;99.90;;;-7.21;100.00;98130.56;5032270;28;19931;-39
2022/12/17 15:45:37;;;;;;;;;;;-5.90;99.90;;;-7.25;100.00;98126.06;5030126;28;19921;-37
2022/12/17 15:48:03;;;;;;;;;;;-6.00;99.90;;;-7.26;100.00;98128.59;5028431;28;19924;-38
2022/12/17 15:50:28;;;;;;;;;;;-6.00;99.90;;;-7.28;100.00;98136.22;5036169;28;20467;-38
2022/12/17 15:52:54;;;;;;;;;;;-6.00;99.90;;;-7.36;100.00;98123.03;5032147;28;19936;-39
2022/12/17 15:55:20;;;;;;;;;;;-6.00;99.90;;;-7.35;100.00;98135.06;5032854;28;19936;-38
2022/12/17 15:57:45;;;;;;;;;;;-6.00;99.90;;;-7.39;100.00;98133.16;5030714;28;20003;-38
2022/12/17 16:00:11;;;;;;;;;;;-6.10;99.90;;;-7.37;100.00;98143.50;5027345;28;20396;-39
2022/12/17 16:02:37;;;;;;;;;;;-6.10;99.90;;;-7.44;100.00;98136.34;5032995;28;19986;-38
2022/12/17 16:05:03;;;;;;;;;;;-6.10;99.90;;;-7.49;100.00;98142.09;5012910;28;19925;-38
2022/12/17 16:07:29;;;;;;;;;;;-6.20;99.90;;;-7.49;100.00;98144.66;5014284;28;20365;-38
2022/12/17 16:09:54;;;;;;;;;;;-6.20;99.90;;;-7.54;100.00;98150.41;5016879;28;19924;-38
2022/12/17 16:12:20;;;;;;;;;;;-6.20;99.90;;;-7.55;100.00;98149.53;5019247;28;20029;-38
2022/12/17 16:14:46;;;;;;;;;;;-6.20;99.90;;;-7.61;100.00;98159.47;5021350;28;19942;-38
2022/12/17 16:17:11;;;;;;;;;;;-6.30;99.90;;;-7.62;100.00;98159.44;5014347;28;19964;-39
2022/12/17 16:19:37;;;;;;;;;;;-6.30;99.90;;;-7.65;100.00;98160.16;5002750;28;19971;-38
2022/12/17 16:22:03;;;;;;;;;;;-6.30;99.90;;;-7.63;100.00;98165.34;5023784;28;19916;-39
2022/12/17 16:24:28;;;;;;;;;;;-6.40;99.90;;;-7.69;100.00;98160.81;4997565;28;20050;-39
2022/12/17 16:26:54;;;;;;;;;;;-6.40;99.90;;;-7.74;100.00;98158.03;5008861;28;20440;-39
2022/12/17 16:29:20;;;;;;;;;;;-6.40;99.90;;;-7.69;100.00;98168.50;5007436;28;19931;-39
2022/12/17 16:31:45;;;;;;;;;;;-6.40;99.90;;;-7.78;100.00;98150.16;5023662;28;19917;-39
2022/12/17 16:34:11;;;;;;;;;;;-6.40;99.90;;;-7.72;100.00;98166.66;5023095;28;19917;-39
2022/12/17 16:36:37;;;;;;;;;;;-6.50;99.90;;;-7.78;100.00;98155.28;5029383;28;19924;-39
2022/12/17 16:39:04;;;;;;;;;;;-6.50;99.90;;;-7.77;100.00;98162.13;5028021;28;21438;-39
2022/12/17 16:41:30;;;;;;;;;;;-6.50;99.90;;;-7.78;100.00;98160.41;5019544;28;19944;-40
2022/12/17 16:43:56;;;;;;;;;;;-6.50;99.90;;;-7.82;100.00;98161.03;5027529;28;19978;-40
2022/12/17 16:46:26;;;;;;;;;;;-6.50;99.90;;;-7.82;100.00;98155.91;5034413;28;19932;-39
2022/12/17 16:48:52;;;;;;;;;;;-6.50;99.90;;;-7.90;100.00;98156.44;5019497;28;19920;-40
2022/12/17 16:51:19;;;;;;;;;;;-6.50;99.90;;;-7.92;100.00;98157.19;5014826;28;19921;-39
2022/12/17 16:53:45;;;;;;;;;;;-6.60;99.90;;;-7.91;100.00;98161.50;5020123;28;19960;-39
2022/12/17 16:56:22;;;;;;;;;;;-6.60;99.90;;;-7.95;100.00;98160.47;5012644;28;19994;-39
2022/12/17 16:58:47;;;;;;;;;;;-6.60;99.90;;;-7.94;100.00;98151.97;5005928;28;21057;-40
2022/12/17 17:01:21;;;;;;;;;;;-6.60;99.90;;;-7.93;100.00;98158.88;5006059;28;19931;-39
2022/12/17 17:04:28;;;;;;;;;;;-6.60;99.90;;;-7.97;100.00;98154.38;5012538;28;19927;-38
2022/12/17 17:06:55;;;;;;;;;;;-6.60;99.90;;;-7.97;100.00;98158.63;5019834;28;19921;-38
2022/12/17 17:09:21;;;;;;;;;;;-6.60;99.90;;;-7.96;100.00;98158.72;5031032;28;20019;-38
2022/12/17 17:11:48;;;;;;;;;;;-6.60;99.90;;;-7.96;100.00;98163.84;5038359;28;20261;-38
2022/12/17 17:14:13;;;;;;;;;;;-6.70;99.90;;;-7.98;100.00;98168.00;5033393;28;19925;-38
2022/12/17 17:16:39;;;;;;;;;;;-6.70;99.90;;;-7.99;100.00;98171.34;5031087;28;19920;-38
2022/12/17 17:19:05;;;;;;;;;;;-6.60;99.90;;;-8.03;100.00;98171.16;5038060;28;20327;-38
2022/12/17 17:21:33;;;;;;;;;;;-6.70;99.90;;;-8.00;100.00;98171.28;5037678;28;19920;-38
2022/12/17 17:24:05;;;;;;;;;;;-6.70;99.90;;;-8.00;100.00;98173.84;5036502;28;19921;-38
2022/12/17 17:26:32;;;;;;;;;;;-6.70;99.90;;;-8.01;100.00;98188.34;5035625;28;19982;-38
2022/12/17 17:28:58;;;;;;;;;;;-6.70;99.90;;;-7.99;100.00;98175.59;5026696;28;19924;-39
2022/12/17 17:31:24;;;;;;;;;;;-6.70;99.90;;;-8.10;100.00;98182.78;5030165;28;19923;-39
2022/12/17 17:33:50;;;;;;;;;;;-6.70;99.90;;;-8.00;100.00;98190.09;5034131;28;20042;-39
2022/12/17 17:36:22;;;;;;;;;;;-6.70;99.90;;;-8.04;100.00;98185.63;5039284;28;20012;-39
2022/12/17 17:38:49;;;;;;;;;;;-6.70;99.90;;;-8.04;100.00;98183.06;5030045;28;19971;-39
2022/12/17 17:41:19;;;;;;;;;;;-6.70;99.90;;;-8.02;100.00;98186.59;5035679;28;19929;-39
2022/12/17 17:43:45;;;;;;;;;;;-6.70;99.90;;;-8.08;100.00;98171.78;5014307;28;20852;-39
2022/12/17 17:46:14;;;;;;;;;;;-6.70;99.90;;;-8.04;100.00;98179.63;5035151;28;19929;-39
2022/12/17 17:48:40;;;;;;;;;;;-6.70;99.90;;;-7.99;100.00;98188.41;5031210;28;19921;-38
2022/12/17 17:51:10;;;;;;;;;;;-6.60;99.90;;;-8.13;100.00;98175.84;5029719;28;20308;-38
2022/12/17 17:53:35;;;;;;;;;;;-6.70;99.90;;;-8.04;100.00;98198.41;5020648;28;20066;-38
2022/12/17 17:56:15;;;;;;;;;;;-6.70;99.90;;;-8.18;100.00;98174.72;5018892;28;20621;-38
2022/12/17 17:58:42;;;;;;;;;;;-6.70;99.90;;;-8.04;100.00;98200.09;5025905;28;20369;-38
2022/12/17 18:01:13;;;;;;;;;;;-6.70;99.90;;;-8.04;100.00;98200.97;5021257;28;19925;-39
2022/12/17 18:03:39;;;;;;;;;;;-6.70;99.90;;;-8.12;100.00;98186.94;5032152;28;20225;-38
2022/12/17 18:06:08;;;;;;;;;;;-6.70;99.90;;;-8.08;100.00;98189.72;5037666;28;19960;-38
2022/12/17 18:08:34;;;;;;;;;;;-6.70;99.90;;;-8.10;100.00;98185.34;5031822;28;19916;-38
2022/12/17 18:11:01;;;;;;;;;;;-6.70;99.90;;;-8.06;100.00;98192.34;5038390;28;19917;-38
2022/12/17 18:16:12;;;;;;;;;;;-6.70;99.90;;;-8.30;100.00;98180.13;5028695;28;19973;-39
2022/12/17 18:18:38;;;;;;;;;;;-6.80;99.90;;;-8.20;100.00;98198.47;5037965;28;20686;-38
2022/12/17 18:21:05;;;;;;;;;;;-6.80;99.90;;;-8.19;100.00;98201.13;5027482;28;20475;-38
2022/12/17 18:23:31;;;;;;;;;;;-6.80;99.90;;;-8.19;100.00;98202.81;5023730;28;19967;-39
2022/12/17 18:26:05;;;;;;;;;;;-6.80;99.90;;;-8.20;100.00;98203.59;5035475;28;20015;-38
2022/12/17 18:28:31;;;;;;;;;;;-6.90;99.90;;;-8.28;100.00;98192.97;5023410;28;19925;-35
2022/12/17 18:30:57;;;;;;;;;;;-6.90;99.90;;;-8.25;100.00;98199.13;5024247;28;19925;-36
2022/12/17 18:33:24;;;;;;;;;;;-6.90;99.90;;;-8.43;100.00;98171.78;5033583;28;19932;-36
2022/12/17 18:35:50;;;;;;;;;;;-6.90;99.90;;;-8.32;100.00;98186.84;5023669;28;19932;-37
2022/12/17 18:38:16;;;;;;;;;;;-6.90;99.90;;;-8.31;100.00;98201.41;5036844;28;20330;-37
2022/12/17 18:40:41;;;;;;;;;;;-6.90;99.90;;;-8.53;100.00;98162.78;5024583;28;19921;-37
2022/12/17 18:43:23;;;;;;;;;;;-7.00;99.90;;;-8.34;100.00;98206.34;5039397;28;19956;-37
2022/12/17 18:45:52;;;;;;;;;;;-7.00;99.90;;;-8.43;100.00;98203.38;5038737;28;20337;-37
2022/12/17 18:48:19;;;;;;;;;;;-7.00;99.90;;;-8.38;100.00;98213.78;5040950;28;20301;-37
2022/12/17 18:50:45;;;;;;;;;;;-7.00;99.90;;;-8.38;100.00;98221.47;5030800;28;19931;-37
2022/12/17 18:53:11;;;;;;;;;;;-7.00;99.90;;;-8.44;100.00;98224.63;5035722;28;19917;-37
2022/12/17 18:55:40;;;;;;;;;;;-7.00;99.90;;;-8.43;100.00;98223.84;5033587;28;20109;-37
2022/12/17 18:58:09;;;;;;;;;;;-7.10;99.90;;;-8.45;100.00;98230.56;5040983;28;20024;-37
2022/12/17 19:00:36;;;;;;;;;;;-7.10;99.90;;;-8.47;100.00;98227.03;5029364;28;20895;-38
2022/12/17 19:03:03;;;;;;;;;;;-7.10;99.90;;;-8.55;100.00;98225.78;5035961;28;19921;-37
2022/12/17 19:05:29;;;;;;;;;;;-7.10;99.90;;;-8.47;100.00;98243.28;5030837;28;19916;-37
2022/12/17 19:07:55;;;;;;;;;;;-7.10;99.90;;;-8.51;100.00;98228.56;5027639;28;20083;-37
2022/12/17 19:10:20;;;;;;;;;;;-7.10;99.90;;;-8.53;100.00;98234.41;5040283;28;19932;-37
2022/12/17 19:12:46;;;;;;;;;;;-7.20;99.90;;;-8.56;100.00;98232.59;5039567;28;20039;-37
2022/12/17 19:15:11;;;;;;;;;;;-7.20;99.90;;;-8.58;100.00;98229.03;5021503;28;20396;-37
2022/12/17 19:17:37;;;;;;;;;;;-7.20;99.90;;;-8.57;100.00;98224.81;5020994;28;19985;-37
2022/12/17 19:20:03;;;;;;;;;;;-7.20;99.90;;;-8.69;100.00;98218.25;5022118;28;19928;-37
2022/12/17 19:22:29;;;;;;;;;;;-7.20;99.90;;;-8.61;100.00;98231.47;5030924;28;20484;-37
2022/12/17 19:24:54;;;;;;;;;;;-7.20;99.90;;;-8.64;100.00;98238.97;5025952;28;20306;-37
2022/12/17 19:27:20;;;;;;;;;;;-7.20;99.90;;;-8.62;100.00;98244.16;5025551;28;20051;-37
2022/12/17 19:29:45;;;;;;;;;;;-7.20;99.90;;;-8.58;100.00;98258.88;5008747;28;20464;-37
2022/12/17 19:32:11;;;;;;;;;;;-7.20;99.90;;;-8.76;100.00;98235.78;5027368;28;20363;-37
2022/12/17 19:34:37;;;;;;;;;;;-7.20;99.90;;;-8.61;100.00;98262.16;5032972;28;20105;-37
2022/12/17 19:37:03;;;;;;;;;;;-7.20;99.90;;;-8.64;100.00;98275.66;5026718;28;20422;-37
2022/12/17 19:39:29;;;;;;;;;;;-7.30;99.90;;;-8.63;100.00;98274.00;5032897;28;19921;-37
2022/12/17 19:41:54;;;;;;;;;;;-7.30;99.90;;;-8.62;100.00;98272.31;5032083;28;20296;-37
2022/12/17 19:44:20;;;;;;;;;;;-7.20;99.90;;;-8.74;100.00;98272.53;5027021;28;20435;-37
2022/12/17 19:46:46;;;;;;;;;;;-7.30;99.90;;;-8.73;100.00;98277.72;5020225;28;20027;-36
2022/12/17 19:49:13;;;;;;;;;;;-7.30;99.90;;;-8.72;100.00;98286.25;5063220;22;19932;-41
2022/12/17 19:51:40;;;;;;;;;;;-7.40;99.90;;;-8.75;100.00;98284.44;5041757;28;19928;-42
2022/12/17 19:54:05;;;;;;;;;;;-7.40;99.90;;;-8.77;100.00;98275.81;5037999;28;19970;-42
2022/12/17 19:56:32;;;;;;;;;;;-7.40;99.90;;;-8.78;100.00;98276.59;5045296;28;20058;-42
2022/12/17 19:59:00;;;;;;;;;;;-7.40;99.90;;;-8.79;100.00;98274.84;5047425;28;19969;-42
2022/12/17 20:01:28;;;;;;;;;;;-7.40;99.90;;;-8.84;100.00;98266.94;5049322;28;20019;-41
2022/12/17 20:03:54;;;;;;;;;;;-7.40;99.90;;;-8.84;100.00;98266.06;5038023;28;20347;-41
2022/12/17 20:06:23;;;;;;;;;;;-7.40;99.90;;;-8.86;100.00;98263.41;5045711;28;19935;-41
2022/12/17 20:08:50;;;;;;;;;;;-7.50;99.90;;;-8.87;100.00;98277.00;5053593;28;19978;-41
2022/12/17 20:11:34;;;;;;;;;;;-7.50;99.90;;;-8.96;100.00;98267.97;5049101;28;19935;-41
2022/12/17 20:14:16;;;;;;;;;;;-7.50;99.90;;;-8.94;100.00;98282.56;5048589;28;20532;-41
2022/12/17 20:16:53;;;;;;;;;;;-7.50;99.90;;;-8.99;100.00;98268.66;5045785;28;19924;-41
2022/12/17 20:19:26;;;;;;;;;;;-7.60;99.90;;;-8.93;100.00;98271.56;5040766;28;19995;-41
2022/12/17 20:21:52;;;;;;;;;;;-7.60;99.90;;;-9.03;100.00;98262.50;5035215;28;19923;-41
2022/12/17 20:24:18;;;;;;;;;;;-7.60;99.90;;;-8.98;100.00;98270.44;5040153;28;19926;-41
2022/12/17 20:26:45;;;;;;;;;;;-7.60;99.90;;;-9.16;100.00;98238.78;5032209;28;19944;-41
2022/12/17 20:29:11;;;;;;;;;;;-7.60;99.90;;;-9.04;100.00;98271.00;5037154;28;20066;-41
2022/12/17 20:31:37;;;;;;;;;;;-7.70;99.90;;;-9.06;100.00;98267.47;5036464;28;19928;-41
2022/12/17 20:34:03;;;;;;;;;;;-7.70;99.90;;;-9.08;100.00;98263.97;5038144;28;20026;-41
2022/12/17 20:36:29;;;;;;;;;;;-7.70;99.90;;;-9.13;100.00;98254.28;5029668;28;19926;-41
2022/12/17 20:38:55;;;;;;;;;;;-7.70;99.90;;;-9.08;100.00;98263.97;5033041;28;19920;-41
2022/12/17 20:41:23;;;;;;;;;;;-7.70;99.90;;;-9.07;100.00;98255.47;5045449;28;20007;-41
2022/12/17 20:43:49;;;;;;;;;;;-7.70;99.90;;;-9.08;100.00;98255.41;5056052;28;20396;-40
2022/12/17 20:46:16;;;;;;;;;;;-7.70;99.90;;;-9.11;100.00;98253.56;5029413;28;20448;-41
2022/12/17 20:48:42;;;;;;;;;;;-7.70;99.90;;;-9.08;100.00;98255.41;5043703;28;19922;-40
2022/12/17 20:51:10;;;;;;;;;;;-7.70;99.90;;;-9.10;100.00;98262.97;5048326;28;20051;-40
2022/12/17 20:53:36;;;;;;;;;;;-7.60;99.90;;;-9.08;100.00;98258.84;5039570;28;20123;-41
2022/12/17 20:56:08;;;;;;;;;;;-7.70;99.90;;;-9.07;100.00;98268.25;5042543;28;19930;-41
2022/12/17 20:58:34;;;;;;;;;;;-7.70;99.90;;;-9.12;100.00;98266.25;5046619;28;20313;-41
2022/12/17 21:01:03;;;;;;;;;;;-7.70;99.90;;;-9.11;100.00;98276.56;5048895;28;20058;-41
2022/12/17 21:03:31;;;;;;;;;;;-7.70;99.90;;;-9.35;100.00;98236.91;5045708;28;21728;-41
2022/12/17 21:06:22;;;;;;;;;;;-7.70;99.90;;;-9.14;100.00;98273.84;5032856;28;19921;-41
2022/12/17 21:08:49;;;;;;;;;;;-7.70;99.90;;;-9.18;100.00;98271.94;5048493;28;19944;-41
2022/12/17 21:11:20;;;;;;;;;;;-7.70;99.90;;;-9.23;100.00;98258.00;5051144;28;20536;-41
2022/12/17 21:13:46;;;;;;;;;;;-7.70;99.90;;;-9.22;100.00;98264.91;5045121;28;19935;-41
2022/12/17 21:16:14;;;;;;;;;;;-7.80;99.90;;;-9.23;100.00;98264.00;5042015;28;21088;-41
2022/12/17 21:18:40;;;;;;;;;;;-7.80;99.90;;;-9.24;100.00;98261.34;5043327;28;19964;-41
2022/12/17 21:21:09;;;;;;;;;;;-7.80;99.90;;;-9.23;100.00;98263.13;5045135;28;19992;-41
2022/12/17 21:23:36;;;;;;;;;;;-7.80;99.90;;;-9.24;100.00;98262.25;5048009;28;19924;-41
2022/12/17 21:26:10;;;;;;;;;;;-7.80;99.90;;;-9.30;100.00;98251.69;5034952;28;20779;-41
2022/12/17 21:28:37;;;;;;;;;;;-7.80;99.90;;;-9.24;100.00;98259.69;5041694;28;19932;-41
2022/12/17 21:31:03;;;;;;;;;;;-7.80;99.90;;;-9.28;100.00;98251.78;5041668;28;19930;-41
2022/12/17 21:33:29;;;;;;;;;;;-7.80;99.90;;;-9.26;100.00;98263.84;5048806;28;19948;-41
2022/12/17 21:36:00;;;;;;;;;;;-7.80;99.90;;;-9.27;100.00;98268.88;5025326;28;20027;-41
2022/12/17 21:38:26;;;;;;;;;;;-7.80;99.90;;;-9.29;100.00;98271.34;5039579;28;20356;-41
2022/12/17 21:40:52;;;;;;;;;;;-7.90;99.90;;;-9.30;100.00;98266.16;5048793;28;19927;-41
2022/12/17 21:43:18;;;;;;;;;;;-7.90;99.90;;;-9.29;100.00;98275.59;5041420;28;19924;-41
2022/12/17 21:45:43;;;;;;;;;;;-7.80;99.90;;;-9.28;100.00;98275.63;5053114;28;19920;-41
2022/12/17 21:48:09;;;;;;;;;;;-7.90;99.90;;;-9.29;100.00;98275.59;5044700;28;19991;-41
2022/12/17 21:50:42;;;;;;;;;;;-7.90;99.90;;;-9.33;100.00;98266.88;5047015;28;19923;-41
2022/12/17 21:53:09;;;;;;;;;;;-7.90;99.90;;;-9.29;100.00;98268.78;5033451;28;20002;-41
2022/12/17 21:55:35;;;;;;;;;;;-7.80;99.90;;;-9.31;100.00;98274.59;5043984;28;19947;-41
2022/12/17 21:58:01;;;;;;;;;;;-7.90;99.90;;;-9.33;100.00;98273.63;5042811;28;20380;-41
2022/12/17 22:00:26;;;;;;;;;;;-7.90;99.90;;;-9.43;100.00;98272.25;5046917;28;19921;-41
2022/12/17 22:02:52;;;;;;;;;;;-7.90;99.90;;;-9.31;100.00;98295.03;5032472;28;19920;-42
2022/12/17 22:05:17;;;;;;;;;;;-7.90;99.90;;;-9.32;100.00;98283.06;5040653;28;19920;-41
2022/12/17 22:07:43;;;;;;;;;;;-7.90;99.90;;;-9.29;100.00;98281.56;5036191;28;20020;-41
2022/12/17 22:10:09;;;;;;;;;;;-7.90;99.90;;;-9.28;100.00;98285.00;5040568;28;20424;-41
2022/12/17 22:15:19;;;;;;;;;;;-7.80;99.90;;;-9.31;100.00;98293.38;5037363;28;20088;-41
2022/12/17 22:17:44;;;;;;;;;;;-7.80;99.90;;;-9.23;100.00;98304.88;5044240;28;19933;-41
2022/12/17 22:20:10;;;;;;;;;;;-7.80;99.90;;;-9.25;100.00;98306.47;5046093;28;19925;-44
2022/12/17 22:22:36;;;;;;;;;;;-7.80;99.90;;;-9.37;100.00;98271.72;5036732;28;19924;-40
2022/12/17 22:25:02;;;;;;;;;;;-7.80;99.90;;;-9.41;100.00;98265.56;5036372;28;20289;-41
2022/12/17 22:27:28;;;;;;;;;;;-7.80;99.90;;;-9.25;100.00;98290.28;5035208;28;19928;-41
2022/12/17 22:35:22;;;;;;;;;;;-7.80;99.90;;;-9.32;100.00;98288.19;5044475;28;20033;-40
2022/12/17 22:37:47;;;;;;;;;;;-7.80;99.90;;;-9.31;100.00;98295.94;5031104;28;20346;-40
2022/12/17 22:40:13;;;;;;;;;;;-7.90;99.90;;;-9.31;100.00;98292.47;5044549;28;19924;-40
2022/12/17 22:45:23;;;;;;;;;;;-7.90;99.90;;;-9.29;100.00;98296.03;5044105;28;20003;-41
2022/12/17 22:47:48;;;;;;;;;;;-7.90;99.90;;;-9.27;100.00;98307.19;5036196;28;19932;-41
2022/12/17 22:50:14;;;;;;;;;;;-7.90;99.90;;;-9.28;100.00;98301.19;5043302;28;20385;-41
2022/12/17 22:52:39;;;;;;;;;;;-7.90;99.90;;;-9.27;100.00;98286.75;5040419;28;20699;-41
2022/12/17 22:55:06;;;;;;;;;;;-7.90;99.90;;;-9.27;100.00;98287.63;5033229;28;20015;-41
2022/12/17 22:57:32;;;;;;;;;;;-7.80;99.90;;;-9.30;100.00;98282.34;5037976;28;20611;-41
2022/12/17 22:59:57;;;;;;;;;;;-7.90;99.90;;;-9.41;100.00;98260.44;5033296;28;20019;-41
2022/12/17 23:02:23;;;;;;;;;;;-7.90;99.90;;;-9.25;100.00;98280.94;5034432;28;20007;-41
2022/12/17 23:04:49;;;;;;;;;;;-7.80;99.90;;;-9.39;100.00;98260.53;5041988;28;19959;-41
2022/12/17 23:07:14;;;;;;;;;;;-7.80;99.90;;;-9.26;100.00;98286.84;5042312;28;19921;-41
2022/12/17 23:09:40;;;;;;;;;;;-7.80;99.90;;;-9.26;100.00;98284.28;5044011;28;19924;-41
2022/12/17 23:14:50;;;;;;;;;;;-7.80;99.90;;;-9.32;100.00;98267.75;5042564;28;20403;-41
2022/12/17 23:17:15;;;;;;;;;;;-7.80;99.90;;;-9.30;100.00;98284.03;5040492;28;20011;-41
2022/12/17 23:19:41;;;;;;;;;;;-7.90;99.90;;;-9.28;100.00;98290.09;5044961;28;20047;-41
2022/12/17 23:22:06;;;;;;;;;;;-7.90;99.90;;;-9.30;100.00;98294.25;5043962;28;20359;-41
2022/12/17 23:24:32;;;;;;;;;;;-7.90;99.90;;;-9.30;100.00;98295.13;5049094;28;19917;-40
2022/12/17 23:26:58;;;;;;;;;;;-7.90;99.90;;;-9.30;100.00;98304.47;5047087;28;19966;-40
2022/12/17 23:29:23;;;;;;;;;;;-7.90;99.90;;;-9.33;100.00;98297.53;5047342;28;19924;-41
2022/12/17 23:31:49;;;;;;;;;;;-7.90;99.90;;;-9.30;100.00;98284.03;5049005;28;20372;-40
2022/12/17 23:34:15;;;;;;;;;;;-7.90;99.90;;;-9.29;100.00;98290.91;5045747;28;19920;-40
2022/12/17 23:36:41;;;;;;;;;;;-7.90;99.90;;;-9.33;100.00;98291.50;5049892;28;20288;-40
2022/12/17 23:39:07;;;;;;;;;;;-7.90;99.90;;;-9.30;100.00;98296.81;5048645;28;19967;-41
2022/12/17 23:41:32;;;;;;;;;;;-7.90;99.90;;;-9.36;100.00;98293.94;5051407;28;19924;-41
2022/12/17 23:43:59;;;;;;;;;;;-7.90;99.90;;;-9.32;100.00;98298.41;5052748;28;20119;-41
2022/12/17 23:46:26;;;;;;;;;;;-7.90;99.90;;;-9.32;100.00;98289.06;5055995;28;19939;-40
2022/12/17 23:48:52;;;;;;;;;;;-7.90;99.90;;;-9.32;100.00;98299.28;5042767;28;19955;-41
2022/12/17 23:51:19;;;;;;;;;;;-7.90;99.90;;;-9.39;100.00;98293.75;5046329;28;20020;-41
2022/12/17 23:53:45;;;;;;;;;;;-7.90;99.90;;;-9.40;100.00;98282.66;5038332;28;19928;-41
2022/12/17 23:56:17;;;;;;;;;;;-8.00;99.90;;;-9.48;100.00;98279.66;5049710;28;19924;-40
2022/12/17 23:58:44;;;;;;;;;;;-8.00;99.90;;;-9.49;100.00;98277.91;5047662;28;20346;-41
